Time;durP1;ratioP1;P1;durP2;ratioP2;P2;SDS_P1;SDS_P2;PMS_P1;PMS_P2;Temp;Humidity;BMP_temperature;BMP_pressure;BME280_temperature;BME280_humidity;BME280_pressure;Samples;Min_cycle;Max_cycle;Signal;HPM_P1;HPM_P2
2023/05/13 00:01:24;;;;;;;0.68;0.68;;;;;;;12.42;83.55;99981.06;5138265;27;20043;-63
2023/05/13 00:03:53;;;;;;;0.98;0.93;;;;;;;12.39;83.88;99975.94;5138401;27;20039;-63
2023/05/13 00:06:21;;;;;;;0.90;0.90;;;;;;;12.35;84.17;99971.69;5138114;27;20401;-63
2023/05/13 00:08:50;;;;;;;1.23;1.13;;;;;;;12.38;84.51;99981.94;5138445;27;20043;-63
2023/05/13 00:11:20;;;;;;;0.93;0.93;;;;;;;12.37;84.56;99975.09;5138189;27;20119;-63
2023/05/13 00:13:50;;;;;;;0.63;0.63;;;;;;;12.34;84.42;99975.94;5138433;27;20081;-63
2023/05/13 00:16:21;;;;;;;0.50;0.50;;;;;;;12.37;84.57;99975.94;5137868;27;20036;-63
2023/05/13 00:18:50;;;;;;;0.80;0.80;;;;;;;12.35;84.58;99976.81;5138159;27;20393;-63
2023/05/13 00:21:19;;;;;;;0.57;0.57;;;;;;;12.33;84.53;99981.09;5137828;27;20391;-62
2023/05/13 00:23:48;;;;;;;0.30;0.30;;;;;;;12.30;84.73;99971.72;5120244;27;20036;-63
2023/05/13 00:26:17;;;;;;;0.60;0.60;;;;;;;12.32;84.91;99969.13;5137704;27;20031;-63
2023/05/13 00:28:50;;;;;;;0.70;0.70;;;;;;;12.34;85.05;99969.97;5137641;27;20566;-63
2023/05/13 00:31:19;;;;;;;0.52;0.52;;;;;;;12.35;84.88;99966.56;5137873;27;20450;-63
2023/05/13 00:33:48;;;;;;;0.50;0.50;;;;;;;12.33;84.82;99969.16;5119516;27;20126;-63
2023/05/13 00:36:17;;;;;;;0.70;0.70;;;;;;;12.30;85.10;99971.72;5119012;27;20035;-63
2023/05/13 00:38:46;;;;;;;0.83;0.80;;;;;;;12.23;84.97;99976.84;5137531;27;20404;-63
2023/05/13 00:41:15;;;;;;;0.63;0.63;;;;;;;12.20;84.99;99974.28;5119135;27;20074;-62
2023/05/13 00:43:44;;;;;;;0.80;0.80;;;;;;;12.17;85.16;99971.72;5137638;27;20055;-63
2023/05/13 00:46:15;;;;;;;0.83;0.83;;;;;;;12.06;85.55;99964.94;5137275;27;20545;-62
2023/05/13 00:48:44;;;;;;;0.75;0.75;;;;;;;12.15;85.57;99973.44;5137525;27;20283;-63
2023/05/13 00:51:13;;;;;;;0.75;0.75;;;;;;;12.10;85.73;99979.44;5137157;27;20078;-63
2023/05/13 00:53:42;;;;;;;0.43;0.43;;;;;;;12.13;85.75;99970.03;5118836;27;20039;-64
2023/05/13 00:56:11;;;;;;;1.17;0.93;;;;;;;12.17;86.00;99969.16;5118855;27;20039;-62
2023/05/13 00:58:40;;;;;;;0.50;0.50;;;;;;;12.15;85.97;99973.44;5118781;27;20126;-62
2023/05/13 01:01:19;;;;;;;1.05;1.00;;;;;;;12.12;85.98;99973.47;5136983;27;20100;-62
2023/05/13 01:03:56;;;;;;;0.40;0.40;;;;;;;12.09;86.29;99977.72;5137025;27;20043;-62
2023/05/13 01:06:33;;;;;;;0.70;0.70;;;;;;;12.02;86.25;99973.47;5137078;27;20047;-63
2023/05/13 01:09:22;;;;;;;1.25;1.15;;;;;;;12.03;86.33;99974.31;5118606;27;20057;-62
2023/05/13 01:11:55;;;;;;;0.50;0.50;;;;;;;12.03;86.48;99979.44;5137214;27;20168;-62
2023/05/13 01:14:32;;;;;;;0.40;0.40;;;;;;;12.02;86.53;99983.69;5137091;27;20130;-62
2023/05/13 01:17:11;;;;;;;1.08;0.55;;;;;;;11.99;86.73;99986.28;5137018;27;20043;-63
2023/05/13 01:19:44;;;;;;;1.60;1.03;;;;;;;12.03;86.99;99979.44;5137016;27;20047;-63
2023/05/13 01:22:14;;;;;;;0.88;0.88;;;;;;;11.98;86.73;99979.44;5136604;27;20050;-63
2023/05/13 01:24:44;;;;;;;0.63;0.63;;;;;;;11.98;87.18;99976.03;5136863;27;20478;-63
2023/05/13 01:27:14;;;;;;;0.63;0.63;;;;;;;12.04;86.97;99976.03;5136550;27;20043;-62
2023/05/13 01:29:44;;;;;;;0.80;0.80;;;;;;;12.07;87.06;99982.00;5136767;27;20043;-63
2023/05/13 01:32:18;;;;;;;0.95;0.85;;;;;;;12.09;86.83;99980.28;5118360;27;20043;-63
2023/05/13 01:34:47;;;;;;;1.05;0.95;;;;;;;12.08;86.63;99978.59;5118033;27;20066;-63
2023/05/13 01:37:18;;;;;;;1.40;1.30;;;;;;;12.04;86.45;99976.88;5136116;27;20055;-63
2023/05/13 01:39:47;;;;;;;0.63;0.63;;;;;;;12.08;85.88;99970.91;5118097;27;20400;-62
2023/05/13 01:42:16;;;;;;;0.50;0.50;;;;;;;12.12;85.45;99978.59;5117885;27;20043;-62
2023/05/13 01:44:45;;;;;;;0.43;0.43;;;;;;;12.08;84.93;99978.59;5136191;27;20039;-62
2023/05/13 01:47:14;;;;;;;2.83;0.93;;;;;;;12.09;84.64;99975.16;5136115;27;20054;-62
2023/05/13 01:49:43;;;;;;;0.85;0.70;;;;;;;12.13;84.30;99975.16;5136396;27;20066;-62
2023/05/13 01:52:12;;;;;;;1.08;1.00;;;;;;;12.12;83.96;99978.59;5117951;27;20039;-63
2023/05/13 01:54:42;;;;;;;1.50;1.03;;;;;;;12.13;83.43;99975.16;5117945;27;20519;-62
2023/05/13 01:57:14;;;;;;;0.73;0.73;;;;;;;12.13;83.10;99965.78;5135526;27;20076;-62
2023/05/13 01:59:43;;;;;;;0.40;0.40;;;;;;;12.12;82.84;99974.31;5117903;27;20039;-62
2023/05/13 02:02:12;;;;;;;;;;;;;;;12.15;82.58;99978.56;5136446;27;20460;-64
2023/05/13 02:04:41;;;;;;;1.10;0.80;;;;;;;12.18;82.29;99968.31;5135806;27;19925;-64
2023/05/13 02:07:10;;;;;;;0.50;0.50;;;;;;;12.19;82.03;99976.00;5117326;27;20042;-63
2023/05/13 02:09:39;;;;;;;0.55;0.55;;;;;;;12.17;82.44;99972.59;5117696;27;20501;-62
2023/05/13 02:12:10;;;;;;;0.65;0.65;;;;;;;12.20;82.52;99971.72;5117327;27;20039;-64
2023/05/13 02:14:39;;;;;;;0.88;0.70;;;;;;;12.19;82.49;99968.31;5135541;27;20047;-64
2023/05/13 02:17:08;;;;;;;0.50;0.50;;;;;;;12.24;82.92;99968.31;5117433;27;20080;-63
2023/05/13 02:19:36;;;;;;;0.43;0.43;;;;;;;12.26;82.55;99964.06;5117700;27;20039;-62
2023/05/13 02:22:05;;;;;;;0.35;0.35;;;;;;;12.24;82.86;99961.47;5135510;27;20031;-62
2023/05/13 02:24:38;;;;;;;0.57;0.57;;;;;;;12.26;82.64;99966.59;5135372;27;20043;-62
2023/05/13 02:27:11;;;;;;;20.40;1.33;;;;;;;12.27;82.62;99966.59;5135301;27;20047;-62
2023/05/13 02:29:40;;;;;;;0.70;0.70;;;;;;;12.24;82.36;99965.75;5117051;27;20100;-63
2023/05/13 02:32:09;;;;;;;0.47;0.47;;;;;;;12.28;82.25;99959.78;5117349;27;20047;-63
2023/05/13 02:34:38;;;;;;;0.50;0.50;;;;;;;12.27;82.17;99973.41;5117185;27;20039;-63
2023/05/13 02:37:07;;;;;;;0.80;0.80;;;;;;;12.23;81.80;99966.59;5116710;27;20092;-63
2023/05/13 02:39:43;;;;;;;0.60;0.60;;;;;;;12.27;81.51;99961.47;5135179;27;20047;-63
2023/05/13 02:42:14;;;;;;;0.70;0.70;;;;;;;12.23;80.99;99966.59;5116797;27;20051;-63
2023/05/13 02:44:43;;;;;;;0.57;0.57;;;;;;;12.24;80.89;99958.09;5135104;27;20054;-64
2023/05/13 02:47:14;;;;;;;0.70;0.70;;;;;;;12.32;80.56;99971.69;5135327;27;20071;-64
2023/05/13 02:49:43;;;;;;;0.60;0.60;;;;;;;12.34;80.38;99969.97;5116689;27;20042;-62
2023/05/13 02:52:12;;;;;;;0.55;0.55;;;;;;;12.29;80.17;99972.56;5116698;27;20043;-63
2023/05/13 02:54:41;;;;;;;0.70;0.70;;;;;;;12.32;80.03;99969.13;5134807;27;20035;-62
2023/05/13 02:57:10;;;;;;;0.30;0.30;;;;;;;12.32;79.64;99976.81;5135112;27;20059;-62
2023/05/13 02:59:40;;;;;;;0.65;0.65;;;;;;;12.34;79.06;99980.22;5116459;27;20370;-62
2023/05/13 03:02:11;;;;;;;0.45;0.45;;;;;;;12.36;79.16;99974.22;5116494;27;20043;-63
2023/05/13 03:04:41;;;;;;;0.70;0.70;;;;;;;12.37;78.97;99985.34;5116539;27;20047;-63
2023/05/13 03:07:10;;;;;;;0.80;0.70;;;;;;;12.38;78.81;99987.03;5135329;27;20070;-63
2023/05/13 03:09:41;;;;;;;0.67;0.67;;;;;;;12.39;78.50;99983.63;5133680;27;20400;-63
2023/05/13 03:12:10;;;;;;;2.15;0.95;;;;;;;12.40;78.36;99985.34;5134997;27;20053;-63
2023/05/13 03:14:41;;;;;;;0.40;0.40;;;;;;;12.38;78.63;99987.03;5116330;28;20047;-62
2023/05/13 03:17:11;;;;;;;1.08;0.60;;;;;;;12.35;79.03;99993.03;5116281;27;20066;-62
2023/05/13 03:19:41;;;;;;;0.65;0.65;;;;;;;12.32;79.28;99992.16;5134493;27;20559;-63
2023/05/13 03:22:09;;;;;;;;;;;;;;;12.32;79.50;99992.16;5135185;28;20419;-63
2023/05/13 03:24:38;;;;;;;1.17;1.08;;;;;;;12.30;79.77;99989.63;5134551;28;19926;-62
2023/05/13 03:27:07;;;;;;;0.50;0.50;;;;;;;12.26;80.11;99987.09;5116267;28;20500;-64
2023/05/13 03:29:36;;;;;;;0.40;0.40;;;;;;;12.25;80.20;99993.03;5116422;28;20430;-63
2023/05/13 03:32:07;;;;;;;0.82;0.82;;;;;;;12.14;80.50;99982.00;5134438;28;20126;-63
2023/05/13 03:34:36;;;;;;;0.55;0.55;;;;;;;12.12;80.99;99993.94;5116416;28;20374;-63
2023/05/13 03:37:06;;;;;;;1.00;1.00;;;;;;;12.06;81.37;99995.66;5116003;28;20054;-64
2023/05/13 03:39:35;;;;;;;0.40;0.40;;;;;;;12.12;81.68;99993.94;5116348;28;20043;-63
2023/05/13 03:42:05;;;;;;;0.77;0.77;;;;;;;12.15;81.72;99994.78;5134386;28;20126;-63
2023/05/13 03:44:35;;;;;;;0.50;0.50;;;;;;;12.18;81.64;99994.78;5116104;28;20126;-64
2023/05/13 03:47:04;;;;;;;0.60;0.60;;;;;;;12.17;81.98;100002.44;5134559;28;20067;-64
2023/05/13 03:49:34;;;;;;;0.47;0.47;;;;;;;12.16;82.41;99998.19;5134263;28;20122;-64
2023/05/13 03:52:06;;;;;;;0.65;0.65;;;;;;;12.14;82.33;99995.63;5134268;28;20035;-63
2023/05/13 03:54:36;;;;;;;0.77;0.77;;;;;;;12.09;82.61;99998.19;5115876;28;20485;-64
2023/05/13 03:57:05;;;;;;;0.60;0.60;;;;;;;12.09;83.02;100000.75;5115973;28;20039;-64
2023/05/13 03:59:34;;;;;;;0.50;0.50;;;;;;;12.10;83.04;99996.47;5134291;28;20055;-64
2023/05/13 04:02:03;;;;;;;1.02;1.00;;;;;;;12.10;83.28;100007.56;5115929;28;20553;-63
2023/05/13 04:04:32;;;;;;;0.57;0.57;;;;;;;12.11;83.23;100005.88;5115856;28;20054;-64
2023/05/13 04:07:02;;;;;;;1.27;0.90;;;;;;;12.10;82.92;100012.69;5134028;28;20043;-63
2023/05/13 04:09:31;;;;;;;0.82;0.82;;;;;;;12.03;82.60;100011.00;5134081;28;20277;-62
2023/05/13 04:12:00;;;;;;;0.90;0.90;;;;;;;12.03;82.33;100011.00;5134345;28;20046;-63
2023/05/13 04:14:29;;;;;;;2.20;0.82;;;;;;;12.06;82.14;100011.00;5134510;28;20101;-62
2023/05/13 04:16:58;;;;;;;2.47;1.40;;;;;;;12.07;82.29;100017.81;5134409;28;20039;-63
2023/05/13 04:19:27;;;;;;;3.43;2.27;;;;;;;12.07;81.68;100017.81;5133976;28;20043;-63
2023/05/13 04:21:56;;;;;;;0.40;0.40;;;;;;;12.01;81.56;100012.72;5118359;27;20514;-63
2023/05/13 04:24:26;;;;;;;1.02;0.98;;;;;;;12.03;80.71;100026.34;5137763;27;20045;-62
2023/05/13 04:26:55;;;;;;;0.75;0.47;;;;;;;12.07;80.21;100028.03;5119729;27;20134;-62
2023/05/13 04:29:26;;;;;;;0.80;0.80;;;;;;;12.08;79.81;100022.09;5119372;27;20079;-63
2023/05/13 04:31:55;;;;;;;0.60;0.60;;;;;;;12.17;79.52;100030.59;5137552;27;20036;-63
2023/05/13 04:34:24;;;;;;;0.50;0.50;;;;;;;12.19;79.51;100026.34;5137479;27;20050;-64
2023/05/13 04:36:53;;;;;;;0.93;0.80;;;;;;;12.19;79.23;100031.47;5115550;28;20055;-63
2023/05/13 04:39:21;;;;;;;0.40;0.40;;;;;;;12.20;78.99;100033.13;5117206;28;20060;-63
2023/05/13 04:41:52;;;;;;;0.70;0.70;;;;;;;12.19;79.30;100034.84;5116222;28;20027;-64
2023/05/13 04:44:21;;;;;;;0.70;0.70;;;;;;;12.20;79.74;100028.88;5115657;28;20040;-63
2023/05/13 04:46:50;;;;;;;0.50;0.50;;;;;;;12.20;79.82;100034.00;5116759;28;20040;-62
2023/05/13 04:49:19;;;;;;;3.10;1.30;;;;;;;12.20;79.85;100038.25;5116773;28;20105;-63
2023/05/13 04:51:48;;;;;;;0.50;0.50;;;;;;;12.22;80.02;100037.41;5115476;28;20039;-62
2023/05/13 04:54:19;;;;;;;1.55;1.20;;;;;;;12.27;79.93;100039.94;5116558;28;20492;-62
2023/05/13 04:56:48;;;;;;;0.80;0.80;;;;;;;12.29;79.62;100031.41;5116615;28;20046;-62
2023/05/13 04:59:18;;;;;;;0.50;0.50;;;;;;;12.32;79.86;100036.53;5115388;28;20047;-63
2023/05/13 05:01:49;;;;;;;1.80;1.48;;;;;;;12.29;79.94;100045.91;5116488;28;20340;-64
2023/05/13 05:04:18;;;;;;;0.43;0.43;;;;;;;12.30;80.24;100034.84;5115216;28;20097;-63
2023/05/13 05:06:47;;;;;;;0.38;0.38;;;;;;;12.30;80.12;100045.94;5115224;28;20043;-63
2023/05/13 05:09:17;;;;;;;0.50;0.50;;;;;;;12.30;80.31;100047.63;5116722;28;20051;-63
2023/05/13 05:11:49;;;;;;;0.50;0.50;;;;;;;12.30;80.08;100050.19;5115157;28;20054;-63
2023/05/13 05:14:21;;;;;;;0.57;0.57;;;;;;;12.29;79.24;100048.47;5115030;28;20043;-63
2023/05/13 05:16:51;;;;;;;0.70;0.70;;;;;;;12.25;78.62;100051.91;5116203;28;20043;-63
2023/05/13 05:19:22;;;;;;;0.40;0.40;;;;;;;12.23;77.29;100057.03;5115770;28;20048;-63
2023/05/13 05:21:53;;;;;;;0.40;0.40;;;;;;;12.25;76.37;100051.91;5116386;28;20039;-64
2023/05/13 05:24:22;;;;;;;2.67;1.60;;;;;;;12.34;76.22;100051.88;5115961;28;20089;-63
2023/05/13 05:26:51;;;;;;;0.68;0.68;;;;;;;12.38;76.37;100061.28;5115146;28;20044;-63
2023/05/13 05:29:22;;;;;;;0.40;0.40;;;;;;;12.38;76.62;100058.72;5114776;28;20122;-64
2023/05/13 05:31:51;;;;;;;0.70;0.70;;;;;;;12.43;76.82;100060.41;5114409;28;20040;-63
2023/05/13 05:34:20;;;;;;;0.40;0.40;;;;;;;12.46;76.27;100062.09;5114122;28;20485;-63
2023/05/13 05:36:49;;;;;;;0.90;0.88;;;;;;;12.49;75.88;100064.66;5122387;27;20055;-62
2023/05/13 05:39:20;;;;;;;0.50;0.50;;;;;;;12.48;75.10;100070.63;5136618;27;20051;-63
2023/05/13 05:41:49;;;;;;;;;;;;;;;12.51;74.56;100070.63;5118637;27;20042;-62
2023/05/13 05:44:19;;;;;;;0.40;0.40;;;;;;;12.56;74.13;100068.91;5118216;27;19919;-63
2023/05/13 05:46:51;;;;;;;1.63;1.53;;;;;;;12.62;73.71;100066.34;5117962;27;20064;-63
2023/05/13 05:49:21;;;;;;;1.25;1.15;;;;;;;12.68;73.38;100069.72;5118108;27;20070;-64
2023/05/13 05:51:50;;;;;;;;;;;;;;;12.65;73.29;100068.88;5136439;27;20050;-64
2023/05/13 05:54:21;;;;;;;0.57;0.57;;;;;;;12.73;73.11;100067.16;5135866;27;20007;-63
2023/05/13 05:56:50;;;;;;;2.67;1.50;;;;;;;12.72;72.77;100052.63;5136201;27;20496;-62
2023/05/13 05:59:18;;;;;;;0.55;0.55;;;;;;;12.76;72.13;100062.03;5117611;27;20043;-62
2023/05/13 06:01:49;;;;;;;0.83;0.77;;;;;;;12.83;72.00;100075.66;5117911;27;20047;-62
2023/05/13 06:04:18;;;;;;;1.10;0.95;;;;;;;12.88;71.82;100069.66;5117682;27;20485;-63
2023/05/13 06:06:47;;;;;;;0.60;0.60;;;;;;;12.94;72.28;100077.31;5117450;27;20071;-62
2023/05/13 06:09:17;;;;;;;0.93;0.93;;;;;;;12.93;72.65;100070.50;5136238;27;20287;-63
2023/05/13 06:11:46;;;;;;;2.00;0.93;;;;;;;12.98;72.43;100079.00;5135612;27;20046;-62
2023/05/13 06:14:15;;;;;;;0.70;0.70;;;;;;;12.96;72.73;100073.03;5117274;27;20280;-63
2023/05/13 06:16:43;;;;;;;0.73;0.73;;;;;;;13.00;73.04;100077.31;5117165;27;20043;-63
2023/05/13 06:19:14;;;;;;;0.80;0.80;;;;;;;13.04;73.55;100078.13;5135426;27;20095;-63
2023/05/13 06:21:43;;;;;;;0.50;0.50;;;;;;;13.06;73.72;100074.75;5135373;27;20047;-62
2023/05/13 06:24:12;;;;;;;;;;;;;;;13.11;73.70;100079.84;5117534;27;20047;-63
2023/05/13 06:26:41;;;;;;;2.30;1.50;;;;;;;13.14;73.66;100082.38;5135569;27;20006;-62
2023/05/13 06:29:10;;;;;;;0.50;0.50;;;;;;;13.14;73.84;100083.25;5135278;27;20062;-62
2023/05/13 06:31:39;;;;;;;1.10;1.00;;;;;;;13.15;73.41;100095.19;5135174;27;20114;-63
2023/05/13 06:34:09;;;;;;;0.70;0.70;;;;;;;13.15;73.55;100087.50;5116971;27;20047;-62
2023/05/13 06:36:39;;;;;;;1.45;1.35;;;;;;;13.18;73.43;100092.63;5116543;27;20298;-62
2023/05/13 06:39:08;;;;;;;0.98;0.88;;;;;;;13.22;73.61;100088.34;5116029;27;20035;-63
2023/05/13 06:41:39;;;;;;;0.60;0.60;;;;;;;13.22;73.38;100094.31;5116829;27;20051;-63
2023/05/13 06:44:13;;;;;;;0.40;0.40;;;;;;;13.24;73.14;100092.59;5116783;27;20088;-63
2023/05/13 06:46:46;;;;;;;1.50;1.35;;;;;;;13.27;73.16;100087.44;5134883;27;20047;-64
2023/05/13 06:49:15;;;;;;;1.05;0.95;;;;;;;13.29;73.19;100095.16;5116625;27;20118;-64
2023/05/13 06:51:45;;;;;;;0.45;0.45;;;;;;;13.33;73.31;100092.56;5134813;27;20118;-62
2023/05/13 06:54:15;;;;;;;0.60;0.60;;;;;;;13.31;72.95;100078.03;5135436;27;20072;-63
2023/05/13 06:56:44;;;;;;;0.98;0.95;;;;;;;13.33;73.19;100092.56;5134933;27;20511;-63
2023/05/13 06:59:15;;;;;;;0.60;0.60;;;;;;;13.44;73.09;100090.78;5134716;27;20058;-63
2023/05/13 07:01:44;;;;;;;1.00;0.87;;;;;;;13.54;73.11;100095.84;5134721;27;20039;-62
2023/05/13 07:04:13;;;;;;;2.38;1.67;;;;;;;13.60;73.11;100090.69;5134777;27;20284;-62
2023/05/13 07:06:42;;;;;;;0.65;0.65;;;;;;;13.61;72.63;100092.38;5134701;27;20042;-63
2023/05/13 07:09:13;;;;;;;1.52;1.42;;;;;;;13.61;72.20;100082.13;5134605;27;20051;-63
2023/05/13 07:11:42;;;;;;;0.60;0.60;;;;;;;13.66;71.88;100088.06;5134716;27;20051;-64
2023/05/13 07:14:11;;;;;;;0.73;0.73;;;;;;;13.71;70.94;100092.31;5134545;27;20062;-63
2023/05/13 07:16:40;;;;;;;0.80;0.80;;;;;;;13.85;70.63;100084.50;5134522;27;20039;-63
2023/05/13 07:19:09;;;;;;;0.47;0.47;;;;;;;13.99;71.00;100085.25;5134963;27;20507;-63
2023/05/13 07:21:38;;;;;;;0.73;0.73;;;;;;;14.06;70.79;100081.75;5134845;27;20067;-63
2023/05/13 07:24:08;;;;;;;0.70;0.70;;;;;;;14.16;71.11;100091.09;5134654;28;20366;-63
2023/05/13 07:26:38;;;;;;;0.75;0.75;;;;;;;14.25;71.13;100080.78;5134663;28;20092;-63
2023/05/13 07:29:07;;;;;;;0.82;0.82;;;;;;;14.36;70.78;100076.41;5134465;28;20047;-63
2023/05/13 07:31:36;;;;;;;1.50;0.80;;;;;;;14.50;69.93;100077.13;5134288;28;20130;-63
2023/05/13 07:34:05;;;;;;;0.50;0.50;;;;;;;14.60;69.38;100076.16;5134457;28;20054;-62
2023/05/13 07:36:34;;;;;;;0.98;0.88;;;;;;;14.53;68.20;100079.66;5133950;28;20451;-62
2023/05/13 07:39:03;;;;;;;0.43;0.43;;;;;;;14.62;67.38;100069.28;5134527;28;20369;-62
2023/05/13 07:41:32;;;;;;;0.50;0.50;;;;;;;14.80;66.96;100077.66;5134188;28;20051;-62
2023/05/13 07:44:02;;;;;;;0.52;0.52;;;;;;;14.93;66.45;100058.63;5134257;28;20039;-62
2023/05/13 07:46:34;;;;;;;0.50;0.50;;;;;;;15.18;66.03;100070.31;5134400;28;20047;-61
2023/05/13 07:49:05;;;;;;;0.70;0.68;;;;;;;15.37;64.94;100071.78;5134140;28;20037;-62
2023/05/13 07:51:34;;;;;;;0.60;0.60;;;;;;;15.41;64.37;100073.44;5134257;28;20077;-63
2023/05/13 07:54:03;;;;;;;0.65;0.65;;;;;;;15.34;62.61;100072.66;5134105;28;20065;-63
2023/05/13 07:56:32;;;;;;;1.17;1.08;;;;;;;15.46;62.68;100070.81;5136645;27;20067;-63
2023/05/13 07:59:02;;;;;;;0.50;0.50;;;;;;;15.66;63.12;100069.66;5138406;27;20043;-62
2023/05/13 08:01:31;;;;;;;0.52;0.52;;;;;;;15.82;61.24;100065.97;5138438;27;20134;-62
2023/05/13 08:04:00;;;;;;;0.55;0.50;;;;;;;15.70;58.26;100061.03;5138314;27;20423;-63
2023/05/13 08:06:32;;;;;;;0.40;0.40;;;;;;;15.70;56.18;100061.03;5138085;27;20059;-62
2023/05/13 08:09:01;;;;;;;0.63;0.63;;;;;;;15.88;54.88;100067.63;5137975;27;20099;-62
2023/05/13 08:11:30;;;;;;;0.60;0.60;;;;;;;16.08;54.03;100063.81;5137842;27;20049;-62
2023/05/13 08:14:03;;;;;;;0.95;0.95;;;;;;;16.07;52.66;100072.44;5137932;27;20043;-62
2023/05/13 08:16:35;;;;;;;0.60;0.60;;;;;;;15.86;52.86;100075.34;5137775;27;20043;-62
2023/05/13 08:19:04;;;;;;;0.60;0.60;;;;;;;15.91;52.83;100070.97;5137929;27;20388;-62
2023/05/13 08:21:33;;;;;;;0.45;0.45;;;;;;;15.83;52.62;100067.69;5137818;27;20504;-61
2023/05/13 08:24:02;;;;;;;0.50;0.50;;;;;;;15.88;51.98;100065.03;5137764;27;20039;-62
2023/05/13 08:26:33;;;;;;;0.60;0.60;;;;;;;15.90;51.83;100077.03;5137638;27;20400;-61
2023/05/13 08:29:07;;;;;;;2.30;1.10;;;;;;;15.89;51.76;100072.72;5137957;27;20096;-61
2023/05/13 08:31:36;;;;;;;0.40;0.40;;;;;;;15.88;51.81;100076.16;5137592;27;20051;-61
2023/05/13 08:34:05;;;;;;;0.63;0.63;;;;;;;15.89;51.76;100071.88;5137925;27;20042;-61
2023/05/13 08:36:34;;;;;;;0.75;0.75;;;;;;;15.89;51.01;100083.03;5137595;27;20442;-62
2023/05/13 08:39:03;;;;;;;0.50;0.50;;;;;;;15.93;51.50;100084.66;5137466;27;20054;-62
2023/05/13 08:41:34;;;;;;;3.85;1.50;;;;;;;15.89;51.38;100083.03;5137671;27;20395;-62
2023/05/13 08:44:07;;;;;;;0.47;0.47;;;;;;;15.79;50.78;100073.75;5137419;27;20146;-64
2023/05/13 08:46:39;;;;;;;0.60;0.60;;;;;;;15.78;50.50;100079.78;5137344;27;20110;-63
2023/05/13 08:49:09;;;;;;;0.73;0.65;;;;;;;15.77;50.55;100083.22;5137228;27;20067;-62
2023/05/13 08:51:38;;;;;;;0.50;0.50;;;;;;;15.77;50.30;100083.22;5137226;27;20061;-62
2023/05/13 08:54:09;;;;;;;0.63;0.63;;;;;;;15.87;50.26;100084.78;5137131;27;20100;-62
2023/05/13 08:56:39;;;;;;;0.60;0.60;;;;;;;15.87;50.17;100084.78;5137052;27;20035;-62
2023/05/13 08:59:09;;;;;;;1.13;1.00;;;;;;;15.84;49.34;100087.41;5137027;27;20130;-62
2023/05/13 09:01:39;;;;;;;1.40;0.85;;;;;;;15.84;49.75;100084.81;5137158;27;20043;-62
2023/05/13 09:04:10;;;;;;;0.60;0.60;;;;;;;15.81;49.40;100090.00;5137001;27;20050;-62
2023/05/13 09:06:42;;;;;;;0.80;0.80;;;;;;;15.86;50.24;100088.22;5136821;27;20078;-62
2023/05/13 09:09:11;;;;;;;0.50;0.50;;;;;;;15.82;52.86;100091.72;5136827;27;20039;-62
2023/05/13 09:11:41;;;;;;;1.52;0.93;;;;;;;15.82;54.62;100091.72;5136775;27;20446;-62
2023/05/13 09:14:13;;;;;;;0.50;0.50;;;;;;;15.84;55.05;100089.13;5137135;27;20071;-62
2023/05/13 09:16:42;;;;;;;1.23;1.10;;;;;;;15.84;55.53;100089.13;5136630;27;20043;-62
2023/05/13 09:19:12;;;;;;;0.63;0.63;;;;;;;15.89;56.59;100090.75;5136715;27;20036;-62
2023/05/13 09:21:44;;;;;;;0.55;0.55;;;;;;;15.86;56.34;100108.81;5136997;27;20063;-62
2023/05/13 09:24:17;;;;;;;0.63;0.60;;;;;;;15.82;56.46;100086.56;5136935;27;20069;-62
2023/05/13 09:26:47;;;;;;;0.80;0.80;;;;;;;15.71;56.44;100093.63;5136537;27;20374;-62
2023/05/13 09:29:20;;;;;;;0.85;0.80;;;;;;;15.76;56.59;100099.56;5136486;27;20392;-62
2023/05/13 09:31:51;;;;;;;0.50;0.50;;;;;;;15.76;57.41;100101.28;5135577;27;20519;-62
2023/05/13 09:34:28;;;;;;;1.00;0.80;;;;;;;15.74;57.84;100098.69;5136767;27;20043;-62
2023/05/13 09:37:02;;;;;;;0.43;0.40;;;;;;;15.72;57.82;100099.59;5136054;27;20078;-62
2023/05/13 09:39:33;;;;;;;0.40;0.40;;;;;;;15.67;57.80;100106.56;5136316;27;20050;-62
2023/05/13 09:42:02;;;;;;;0.38;0.38;;;;;;;15.66;58.54;100100.56;5136295;27;20057;-62
2023/05/13 09:44:34;;;;;;;1.25;1.08;;;;;;;15.60;58.61;100095.47;5136234;27;20050;-62
2023/05/13 09:47:06;;;;;;;0.55;0.47;;;;;;;15.65;57.90;100104.00;5136149;27;20076;-63
2023/05/13 09:49:36;;;;;;;0.70;0.70;;;;;;;15.68;57.18;100108.25;5136373;27;20036;-62
2023/05/13 09:52:08;;;;;;;0.57;0.57;;;;;;;15.65;58.05;100106.56;5136296;27;20047;-62
2023/05/13 09:54:38;;;;;;;0.50;0.50;;;;;;;15.57;59.14;100099.84;5135863;27;20047;-62
2023/05/13 09:57:07;;;;;;;0.35;0.35;;;;;;;15.52;59.54;100107.63;5135924;27;20036;-62
2023/05/13 09:59:37;;;;;;;0.45;0.45;;;;;;;15.56;60.15;100104.13;5135884;27;20070;-62
2023/05/13 10:02:07;;;;;;;0.55;0.55;;;;;;;15.61;60.56;100107.50;5135848;27;20503;-62
2023/05/13 10:04:39;;;;;;;0.50;0.50;;;;;;;15.57;60.12;100095.53;5136135;27;20047;-63
2023/05/13 10:07:10;;;;;;;0.65;0.65;;;;;;;15.74;60.27;100109.00;5117326;27;20058;-62
2023/05/13 10:09:40;;;;;;;0.68;0.68;;;;;;;15.69;59.14;100110.78;5135706;27;20043;-62
2023/05/13 10:12:12;;;;;;;0.70;0.70;;;;;;;15.70;59.25;100111.63;5135867;27;20088;-62
2023/05/13 10:14:43;;;;;;;0.47;0.47;;;;;;;15.67;59.15;100112.53;5135972;27;20512;-61
2023/05/13 10:17:14;;;;;;;0.70;0.65;;;;;;;15.59;59.66;100111.81;5135424;27;20058;-62
2023/05/13 10:19:43;;;;;;;0.88;0.80;;;;;;;15.69;60.04;100105.63;5134921;27;20047;-62
2023/05/13 10:22:14;;;;;;;0.60;0.60;;;;;;;15.83;61.01;100114.03;5136028;27;20102;-62
2023/05/13 10:24:44;;;;;;;1.55;0.85;;;;;;;15.81;61.06;100102.88;5117432;27;20122;-62
2023/05/13 10:27:16;;;;;;;0.57;0.57;;;;;;;15.84;61.12;100100.25;5135768;27;20049;-62
2023/05/13 10:29:46;;;;;;;;;;;;;;;15.93;61.20;100105.25;5135643;27;20073;-62
2023/05/13 10:32:15;;;;;;;1.45;1.08;;;;;;;16.08;60.88;100099.88;5135366;27;19950;-62
2023/05/13 10:34:46;;;;;;;0.85;0.85;;;;;;;16.26;59.93;100092.72;5135603;27;20084;-62
2023/05/13 10:37:34;;;;;;;0.60;0.60;;;;;;;16.44;57.36;100097.53;5134917;27;20057;-62
2023/05/13 10:40:26;;;;;;;0.60;0.60;;;;;;;16.46;56.57;100096.63;5135204;27;20138;-62
2023/05/13 10:43:09;;;;;;;0.50;0.50;;;;;;;16.67;56.30;100090.28;5135062;27;20500;-62
2023/05/13 10:45:39;;;;;;;0.70;0.70;;;;;;;16.81;55.38;100101.19;5135346;27;20565;-63
2023/05/13 10:48:11;;;;;;;0.40;0.40;;;;;;;16.87;55.24;100097.66;5135003;27;20066;-63
2023/05/13 10:50:40;;;;;;;0.30;0.30;;;;;;;16.85;55.23;100099.38;5133966;27;20053;-62
2023/05/13 10:53:10;;;;;;;2.03;1.60;;;;;;;16.79;55.13;100094.38;5134948;27;20039;-63
2023/05/13 10:55:45;;;;;;;0.90;0.57;;;;;;;16.84;54.96;100093.41;5134903;27;20484;-62
2023/05/13 10:58:14;;;;;;;0.63;0.52;;;;;;;16.98;54.40;100093.97;5134821;27;20039;-62
2023/05/13 11:00:45;;;;;;;1.35;1.25;;;;;;;17.10;54.45;100086.00;5134819;27;20043;-62
2023/05/13 11:03:26;;;;;;;0.55;0.55;;;;;;;17.24;53.73;100096.88;5134233;27;20043;-62
2023/05/13 11:06:15;;;;;;;0.60;0.60;;;;;;;17.33;52.42;100094.09;5134802;27;20396;-62
2023/05/13 11:08:49;;;;;;;0.68;0.63;;;;;;;17.37;52.25;100090.53;5134673;27;20059;-62
2023/05/13 11:11:26;;;;;;;0.50;0.50;;;;;;;17.47;51.97;100090.38;5134759;27;20083;-63
2023/05/13 11:13:56;;;;;;;0.70;0.70;;;;;;;17.38;51.28;100087.09;5134726;27;20047;-64
2023/05/13 11:16:26;;;;;;;0.40;0.40;;;;;;;17.26;51.46;100094.25;5116081;27;20054;-62
2023/05/13 11:19:00;;;;;;;0.73;0.73;;;;;;;17.17;50.55;100095.31;5134526;27;20473;-63
2023/05/13 11:21:35;;;;;;;0.43;0.43;;;;;;;17.18;51.98;100098.72;5134457;27;20404;-62
2023/05/13 11:24:08;;;;;;;0.65;0.65;;;;;;;17.23;53.04;100102.03;5134554;28;20043;-62
2023/05/13 11:26:49;;;;;;;0.88;0.60;;;;;;;17.22;52.67;100100.34;5134684;28;20492;-62
2023/05/13 11:29:29;;;;;;;0.57;0.57;;;;;;;17.15;51.43;100098.78;5134430;28;20070;-62
2023/05/13 11:32:01;;;;;;;0.50;0.50;;;;;;;17.22;51.32;100096.06;5137547;27;20043;-63
2023/05/13 11:34:31;;;;;;;0.88;0.88;;;;;;;17.15;50.91;100104.81;5138069;27;20043;-62
2023/05/13 11:37:09;;;;;;;0.43;0.43;;;;;;;17.23;50.83;100102.91;5138420;27;20047;-63
2023/05/13 11:39:41;;;;;;;0.95;0.90;;;;;;;17.11;50.82;100108.31;5138534;27;20043;-62
2023/05/13 11:42:13;;;;;;;0.60;0.60;;;;;;;17.11;50.58;100098.00;5135260;27;20069;-62
2023/05/13 11:44:46;;;;;;;0.68;0.68;;;;;;;17.25;50.64;100098.56;5138508;27;20055;-62